createdAt,value
2023-03-19T00:01:14.991Z,9.10
2023-03-19T00:03:44.673Z,9.10
2023-03-19T00:06:13.466Z,9.10
2023-03-19T00:08:44.063Z,9.10
2023-03-19T00:11:15.838Z,9.10
2023-03-19T00:13:44.191Z,9.10
2023-03-19T00:16:12.493Z,9.10
2023-03-19T00:18:45.178Z,9.00
2023-03-19T00:21:13.585Z,9.00
2023-03-19T00:23:45.430Z,9.00
2023-03-19T00:26:14.442Z,9.00
2023-03-19T00:28:43.077Z,9.00
2023-03-19T00:31:16.566Z,9.00
2023-03-19T00:33:46.498Z,8.90
2023-03-19T00:36:18.269Z,8.90
2023-03-19T00:38:47.547Z,8.90
2023-03-19T00:41:17.465Z,8.90
2023-03-19T00:43:48.334Z,8.90
2023-03-19T00:46:16.711Z,8.90
2023-03-19T00:48:46.634Z,8.90
2023-03-19T00:51:17.995Z,8.90
2023-03-19T00:53:46.193Z,8.90
2023-03-19T00:56:18.309Z,8.90
2023-03-19T00:58:48.260Z,8.90
2023-03-19T01:01:19.012Z,8.90
2023-03-19T01:03:49.120Z,8.90
2023-03-19T01:06:19.509Z,8.90
2023-03-19T01:08:49.096Z,8.90
2023-03-19T01:11:18.689Z,9.00
2023-03-19T01:13:47.092Z,8.90
2023-03-19T01:16:16.998Z,9.00
2023-03-19T01:18:45.070Z,9.00
2023-03-19T01:21:14.687Z,9.00
2023-03-19T01:23:48.754Z,9.00
2023-03-19T01:26:17.262Z,9.00
2023-03-19T01:28:48.773Z,9.00
2023-03-19T01:31:20.812Z,9.00
2023-03-19T01:34:18.434Z,9.00
2023-03-19T01:36:52.576Z,9.00
2023-03-19T01:39:27.662Z,9.00
2023-03-19T01:41:57.593Z,9.00
2023-03-19T01:44:36.991Z,9.00
2023-03-19T01:47:29.888Z,9.00
2023-03-19T01:50:25.056Z,9.00
2023-03-19T01:53:07.682Z,9.10
2023-03-19T01:55:53.591Z,9.10
2023-03-19T01:58:52.269Z,9.10
2023-03-19T02:01:54.692Z,9.10
2023-03-19T02:04:23.847Z,9.00
2023-03-19T02:06:52.289Z,9.10
2023-03-19T02:09:22.468Z,9.10
2023-03-19T02:11:51.830Z,9.00
2023-03-19T02:14:20.142Z,9.10
2023-03-19T02:16:51.307Z,9.10
2023-03-19T02:19:29.967Z,9.00
2023-03-19T02:21:59.427Z,9.10
2023-03-19T02:24:35.205Z,9.10
2023-03-19T02:27:15.548Z,9.10
2023-03-19T02:29:49.255Z,9.10
2023-03-19T02:32:17.800Z,9.10
2023-03-19T02:34:46.621Z,9.10
2023-03-19T02:37:20.668Z,9.10
2023-03-19T02:39:56.741Z,9.00
2023-03-19T02:42:30.224Z,9.00
2023-03-19T02:45:01.458Z,9.00
2023-03-19T02:47:29.686Z,9.00
2023-03-19T02:49:57.862Z,9.00
2023-03-19T02:52:27.149Z,9.00
2023-03-19T02:54:55.510Z,9.00
2023-03-19T02:57:23.718Z,9.00
2023-03-19T02:59:53.225Z,9.00
2023-03-19T03:02:21.671Z,9.00
2023-03-19T03:04:50.600Z,9.00
2023-03-19T03:07:20.959Z,9.00
2023-03-19T03:09:49.059Z,9.00
2023-03-19T03:12:17.254Z,9.00
2023-03-19T03:14:45.893Z,9.10
2023-03-19T03:17:15.663Z,9.10
2023-03-19T03:19:43.767Z,9.00
2023-03-19T03:22:13.917Z,9.00
2023-03-19T03:24:44.681Z,9.00
2023-03-19T03:27:13.126Z,9.00
2023-03-19T03:29:42.042Z,9.00
2023-03-19T03:32:12.581Z,9.00
2023-03-19T03:34:42.432Z,9.00
2023-03-19T03:37:10.725Z,9.00
2023-03-19T03:39:38.890Z,9.00
2023-03-19T03:42:09.839Z,9.00
2023-03-19T03:44:39.391Z,9.00
2023-03-19T03:47:10.378Z,9.00
2023-03-19T03:49:38.647Z,9.00
2023-03-19T03:52:09.124Z,9.00
2023-03-19T03:54:37.420Z,9.00
2023-03-19T03:57:06.127Z,9.00
2023-03-19T03:59:34.342Z,9.00
2023-03-19T04:02:02.518Z,8.90
2023-03-19T04:04:31.110Z,9.00
2023-03-19T04:07:01.539Z,9.00
2023-03-19T04:09:39.259Z,8.90
2023-03-19T04:12:07.694Z,8.90
2023-03-19T04:14:36.679Z,9.00
2023-03-19T04:17:05.122Z,9.00
2023-03-19T04:19:33.548Z,9.00
2023-03-19T04:22:04.486Z,8.90
2023-03-19T04:24:34.023Z,9.00
2023-03-19T04:27:03.625Z,9.00
2023-03-19T04:29:32.026Z,9.00
2023-03-19T04:32:03.190Z,8.90
2023-03-19T04:34:31.864Z,8.90
2023-03-19T04:37:02.422Z,8.90
2023-03-19T04:39:31.865Z,8.90
2023-03-19T04:42:00.752Z,8.90
2023-03-19T04:44:34.196Z,9.00
2023-03-19T04:47:03.216Z,9.00
2023-03-19T04:49:38.211Z,9.00
2023-03-19T04:52:06.702Z,9.00
2023-03-19T04:54:35.026Z,9.00
2023-03-19T04:57:03.161Z,9.00
2023-03-19T04:59:38.142Z,9.00
2023-03-19T05:02:07.172Z,9.00
2023-03-19T05:04:39.460Z,9.00
2023-03-19T05:07:11.506Z,9.00
2023-03-19T05:09:40.516Z,9.00
2023-03-19T05:12:08.958Z,9.10
2023-03-19T05:14:44.611Z,9.00
2023-03-19T05:17:20.215Z,9.00
2023-03-19T05:19:55.846Z,9.00
2023-03-19T05:22:27.406Z,9.00
2023-03-19T05:24:59.500Z,9.10
2023-03-19T05:27:28.994Z,9.00
2023-03-19T05:30:09.114Z,9.00
2023-03-19T05:32:47.105Z,9.00
2023-03-19T05:35:30.514Z,9.10
2023-03-19T05:37:59.316Z,9.10
2023-03-19T05:40:28.809Z,9.10
2023-03-19T05:43:02.239Z,9.10
2023-03-19T05:45:32.980Z,9.00
2023-03-19T05:48:09.000Z,9.00
2023-03-19T05:50:42.536Z,9.00
2023-03-19T05:53:18.804Z,9.00
2023-03-19T05:56:02.283Z,9.00
2023-03-19T05:58:38.394Z,9.10
2023-03-19T06:01:10.549Z,9.10
2023-03-19T06:03:39.050Z,9.10
2023-03-19T06:06:10.653Z,9.10
2023-03-19T06:08:43.952Z,9.10
2023-03-19T06:11:25.857Z,9.10
2023-03-19T06:14:13.969Z,9.10
2023-03-19T06:16:46.845Z,9.10
2023-03-19T06:19:15.748Z,9.10
2023-03-19T06:21:46.074Z,9.10
2023-03-19T06:24:14.210Z,9.10
2023-03-19T06:26:42.399Z,9.10
2023-03-19T06:29:16.334Z,9.20
2023-03-19T06:31:50.363Z,9.10
2023-03-19T06:34:22.950Z,9.10
2023-03-19T06:36:51.327Z,9.10
2023-03-19T06:39:21.693Z,9.10
2023-03-19T06:41:52.299Z,9.20
2023-03-19T06:44:25.955Z,9.20
2023-03-19T06:46:55.690Z,9.20
2023-03-19T06:49:27.225Z,9.20
2023-03-19T06:51:55.658Z,9.20
2023-03-19T06:54:23.811Z,9.20
2023-03-19T06:56:51.906Z,9.20
2023-03-19T06:59:20.129Z,9.30
2023-03-19T07:01:48.213Z,9.30
2023-03-19T07:04:18.118Z,9.30
2023-03-19T07:06:46.449Z,9.30
2023-03-19T07:09:15.419Z,9.30
2023-03-19T07:11:43.610Z,9.30
2023-03-19T07:14:11.881Z,9.40
2023-03-19T07:16:40.090Z,9.40
2023-03-19T07:19:10.469Z,9.50
2023-03-19T07:21:39.949Z,9.50
2023-03-19T07:24:08.320Z,9.60
2023-03-19T07:26:38.722Z,9.60
2023-03-19T07:29:09.514Z,9.70
2023-03-19T07:31:37.686Z,9.80
2023-03-19T07:34:05.942Z,9.90
2023-03-19T07:36:34.171Z,10.00
2023-03-19T07:39:03.844Z,10.00
2023-03-19T07:41:34.317Z,10.10
2023-03-19T07:44:03.108Z,10.20
2023-03-19T07:46:31.753Z,10.20
2023-03-19T07:48:59.823Z,10.20
2023-03-19T07:51:27.990Z,10.30
2023-03-19T07:53:56.312Z,10.40
2023-03-19T07:56:25.883Z,10.50
2023-03-19T07:58:56.040Z,10.50
2023-03-19T08:01:27.167Z,10.60
2023-03-19T08:03:55.332Z,10.70
2023-03-19T08:06:23.663Z,10.80
2023-03-19T08:08:53.865Z,10.90
2023-03-19T08:11:25.624Z,11.00
2023-03-19T08:13:55.763Z,11.00
2023-03-19T08:16:26.331Z,11.00
2023-03-19T08:18:56.777Z,11.10
2023-03-19T08:21:27.480Z,11.10
2023-03-19T08:23:55.753Z,11.10
2023-03-19T08:26:25.260Z,11.10
2023-03-19T08:28:53.444Z,11.10
2023-03-19T08:31:21.649Z,11.20
2023-03-19T08:33:49.802Z,11.20
2023-03-19T08:36:18.376Z,11.20
2023-03-19T08:38:46.768Z,11.20
2023-03-19T08:41:17.436Z,11.30
2023-03-19T08:43:49.266Z,11.30
2023-03-19T08:46:19.954Z,11.30
2023-03-19T08:48:48.113Z,11.40
2023-03-19T08:51:16.265Z,11.40
2023-03-19T08:53:44.422Z,11.50
2023-03-19T08:56:12.632Z,11.50
2023-03-19T08:58:42.195Z,11.60
2023-03-19T09:01:14.097Z,11.60
2023-03-19T09:03:45.098Z,11.60
2023-03-19T09:06:15.556Z,11.60
2023-03-19T09:08:44.716Z,11.70
2023-03-19T09:11:14.435Z,11.70
2023-03-19T09:13:42.681Z,11.80
2023-03-19T09:16:14.484Z,11.80
2023-03-19T09:18:42.692Z,11.90
2023-03-19T09:21:10.948Z,12.00
2023-03-19T09:23:39.059Z,12.10
2023-03-19T09:26:07.202Z,12.20
2023-03-19T09:28:36.563Z,12.20
2023-03-19T09:31:07.280Z,12.30
2023-03-19T09:33:39.052Z,12.20
2023-03-19T09:36:07.802Z,12.20
2023-03-19T09:38:36.112Z,12.20
2023-03-19T09:41:10.411Z,12.20
2023-03-19T09:43:51.818Z,12.10
2023-03-19T09:46:24.705Z,12.10
2023-03-19T09:48:59.224Z,12.00
2023-03-19T09:51:36.103Z,12.10
2023-03-19T09:54:14.565Z,12.10
2023-03-19T09:56:42.685Z,12.10
2023-03-19T09:59:13.602Z,12.10
2023-03-19T10:01:48.607Z,12.20
2023-03-19T10:04:42.536Z,12.20
2023-03-19T10:07:23.897Z,12.20
2023-03-19T10:10:02.313Z,12.10
2023-03-19T10:12:49.789Z,12.20
2023-03-19T10:15:22.147Z,12.30
2023-03-19T10:18:01.229Z,12.40
2023-03-19T10:20:45.401Z,12.50
2023-03-19T10:23:33.827Z,12.70
2023-03-19T10:26:07.369Z,13.00
2023-03-19T10:28:38.226Z,13.00
2023-03-19T10:31:23.782Z,13.10
2023-03-19T10:33:59.550Z,13.10
2023-03-19T10:36:34.973Z,13.10
2023-03-19T10:39:07.830Z,13.10
2023-03-19T10:41:48.020Z,13.00
2023-03-19T10:44:29.817Z,13.00
2023-03-19T10:47:11.152Z,12.90
2023-03-19T10:49:42.261Z,12.90
2023-03-19T10:52:21.603Z,12.90
2023-03-19T10:54:57.119Z,12.90
2023-03-19T10:57:29.590Z,12.90
2023-03-19T11:00:02.896Z,13.00
2023-03-19T11:02:32.433Z,13.00
2023-03-19T11:05:24.899Z,13.10
2023-03-19T11:07:57.719Z,13.10
2023-03-19T11:10:28.229Z,13.20
2023-03-19T11:12:58.031Z,13.30
2023-03-19T11:15:33.949Z,13.40
2023-03-19T11:18:09.396Z,13.50
2023-03-19T11:20:39.616Z,13.60
2023-03-19T11:23:16.942Z,13.70
2023-03-19T11:25:51.884Z,13.70
2023-03-19T11:28:25.966Z,13.70
2023-03-19T11:31:03.642Z,13.70
2023-03-19T11:33:57.487Z,13.70
2023-03-19T11:36:31.161Z,13.60
2023-03-19T11:39:11.130Z,13.70
2023-03-19T11:42:05.695Z,13.70
2023-03-19T11:44:42.319Z,13.70
2023-03-19T11:47:27.207Z,13.80
2023-03-19T11:50:18.163Z,13.80
2023-03-19T11:52:59.541Z,13.90
2023-03-19T11:55:36.388Z,14.00
2023-03-19T11:58:26.726Z,14.10
2023-03-19T12:00:56.965Z,14.20
2023-03-19T12:03:57.850Z,14.30
2023-03-19T12:06:35.710Z,14.30
2023-03-19T12:09:08.456Z,14.30
2023-03-19T12:11:49.646Z,14.20
2023-03-19T12:14:30.226Z,14.20
2023-03-19T12:17:16.796Z,14.20
2023-03-19T12:20:00.248Z,14.10
2023-03-19T12:22:44.446Z,14.10
2023-03-19T12:25:29.758Z,14.10
2023-03-19T12:28:09.351Z,14.10
2023-03-19T12:30:42.674Z,14.10
2023-03-19T12:33:30.470Z,14.10
2023-03-19T12:36:01.745Z,14.10
2023-03-19T12:38:38.042Z,14.10
2023-03-19T12:41:12.604Z,14.10
2023-03-19T12:43:51.382Z,14.10
2023-03-19T12:46:25.468Z,14.10
2023-03-19T12:49:02.797Z,14.10
2023-03-19T12:51:35.451Z,14.20
2023-03-19T12:54:12.750Z,14.10
2023-03-19T12:56:47.413Z,14.20
2023-03-19T12:59:24.949Z,14.20
2023-03-19T13:02:00.861Z,14.20
2023-03-19T13:04:34.456Z,14.20
2023-03-19T13:07:07.132Z,14.20
2023-03-19T13:09:40.646Z,14.10
2023-03-19T13:12:17.719Z,14.10
2023-03-19T13:14:56.108Z,14.10
2023-03-19T13:17:29.433Z,14.10
2023-03-19T13:19:59.659Z,14.00
2023-03-19T13:22:31.619Z,14.00
2023-03-19T13:25:01.661Z,14.00
2023-03-19T13:27:34.258Z,14.00
2023-03-19T13:30:17.946Z,13.90
2023-03-19T13:32:49.388Z,13.90
2023-03-19T13:35:33.014Z,13.90
2023-03-19T13:38:08.902Z,13.90
2023-03-19T13:40:41.156Z,13.90
2023-03-19T13:43:47.247Z,13.90
2023-03-19T13:46:45.244Z,13.80
2023-03-19T13:49:33.592Z,13.70
2023-03-19T13:52:24.479Z,13.70
2023-03-19T13:54:56.815Z,13.60
2023-03-19T13:57:36.318Z,13.60
2023-03-19T14:00:43.117Z,13.70
2023-03-19T14:03:21.963Z,13.70
2023-03-19T14:05:56.418Z,13.80
2023-03-19T14:08:29.680Z,14.00
2023-03-19T14:11:00.616Z,14.20
2023-03-19T14:13:36.059Z,14.40
2023-03-19T14:16:18.105Z,14.50
2023-03-19T14:18:50.523Z,14.60
2023-03-19T14:21:34.035Z,14.70
2023-03-19T14:27:29.563Z,15.00
2023-03-19T14:30:00.695Z,15.10
2023-03-19T14:32:35.430Z,15.20
2023-03-19T14:35:08.837Z,15.20
2023-03-19T14:37:47.884Z,15.40
2023-03-19T14:40:19.857Z,15.50
2023-03-19T14:42:59.847Z,15.60
2023-03-19T14:45:44.657Z,15.70
2023-03-19T14:48:51.075Z,15.80
2023-03-19T14:51:50.070Z,16.00
2023-03-19T14:54:36.728Z,16.10
2023-03-19T14:57:09.537Z,16.20
2023-03-19T14:59:41.163Z,16.30
2023-03-19T15:02:28.762Z,16.40
2023-03-19T15:05:00.201Z,16.40
2023-03-19T15:07:38.633Z,16.30
2023-03-19T15:10:14.809Z,16.40
2023-03-19T15:13:11.336Z,16.40
2023-03-19T15:15:59.549Z,16.40
2023-03-19T15:18:30.583Z,16.40
2023-03-19T15:21:03.504Z,16.40
2023-03-19T15:23:36.020Z,16.50
2023-03-19T15:26:08.655Z,16.50
2023-03-19T15:28:47.569Z,16.60
2023-03-19T15:31:31.965Z,16.50
2023-03-19T15:34:19.465Z,16.50
2023-03-19T15:36:53.959Z,16.40
2023-03-19T15:39:26.295Z,16.30
2023-03-19T15:41:56.112Z,16.30
2023-03-19T15:44:29.995Z,16.20
2023-03-19T15:47:03.215Z,16.10
2023-03-19T15:49:36.649Z,16.00
2023-03-19T15:52:12.439Z,15.90
2023-03-19T15:54:42.641Z,15.80
2023-03-19T15:57:12.898Z,15.70
2023-03-19T15:59:42.070Z,15.80
2023-03-19T16:02:21.667Z,15.80
2023-03-19T16:05:21.552Z,15.70
2023-03-19T16:07:43.980Z,15.60
2023-03-19T16:10:33.684Z,15.60
2023-03-19T16:13:05.060Z,15.50
2023-03-19T16:15:45.584Z,15.40
2023-03-19T16:18:27.656Z,15.40
2023-03-19T16:21:03.301Z,15.40
2023-03-19T16:23:34.620Z,15.30
2023-03-19T16:26:22.528Z,15.30
2023-03-19T16:28:59.483Z,15.20
2023-03-19T16:31:32.042Z,15.20
2023-03-19T16:34:00.528Z,15.10
2023-03-19T16:36:33.302Z,15.00
2023-03-19T16:39:26.925Z,15.00
2023-03-19T16:42:31.471Z,15.00
2023-03-19T16:45:18.123Z,15.00
2023-03-19T16:47:47.878Z,14.90
2023-03-19T16:50:19.793Z,14.90
2023-03-19T16:52:49.259Z,14.90
2023-03-19T16:55:22.781Z,14.80
2023-03-19T16:57:58.952Z,14.80
2023-03-19T17:00:32.388Z,14.70
2023-03-19T17:03:02.611Z,14.70
2023-03-19T17:05:31.580Z,14.60
2023-03-19T17:07:59.724Z,14.60
2023-03-19T17:10:30.187Z,14.60
2023-03-19T17:13:01.285Z,14.50
2023-03-19T17:15:32.985Z,14.40
2023-03-19T17:18:05.766Z,14.40
2023-03-19T17:20:37.376Z,14.30
2023-03-19T17:23:11.277Z,14.30
2023-03-19T17:25:42.153Z,14.20
2023-03-19T17:28:13.941Z,14.10
2023-03-19T17:30:42.271Z,14.10
2023-03-19T17:33:22.399Z,14.00
2023-03-19T17:35:50.979Z,14.00
2023-03-19T17:38:20.455Z,13.90
2023-03-19T17:40:48.950Z,13.90
2023-03-19T17:43:18.558Z,13.80
2023-03-19T17:45:50.132Z,13.70
2023-03-19T17:48:21.645Z,13.60
2023-03-19T17:50:51.271Z,13.50
2023-03-19T17:53:19.691Z,13.50
2023-03-19T17:55:50.291Z,13.40
2023-03-19T17:58:23.959Z,13.40
2023-03-19T18:00:54.846Z,13.30
2023-03-19T18:03:25.685Z,13.20
2023-03-19T18:05:56.011Z,13.20
2023-03-19T18:08:24.717Z,13.10
2023-03-19T18:10:53.041Z,13.10
2023-03-19T18:13:22.647Z,13.00
2023-03-19T18:15:50.938Z,13.00
2023-03-19T18:18:22.383Z,12.90
2023-03-19T18:20:51.430Z,12.80
2023-03-19T18:23:19.690Z,12.80
2023-03-19T18:25:51.534Z,12.80
2023-03-19T18:28:19.767Z,12.70
2023-03-19T18:30:51.764Z,12.70
2023-03-19T18:33:27.389Z,12.70
2023-03-19T18:35:59.555Z,12.60
2023-03-19T18:38:30.937Z,12.60
2023-03-19T18:41:02.270Z,12.50
2023-03-19T18:43:30.791Z,12.50
2023-03-19T18:46:00.781Z,12.50
2023-03-19T18:48:31.631Z,12.40
2023-03-19T18:50:59.913Z,12.40
2023-03-19T18:53:30.396Z,12.40
2023-03-19T18:55:58.923Z,12.50
2023-03-19T18:58:30.176Z,12.40
2023-03-19T19:01:04.425Z,12.40
2023-03-19T19:03:33.896Z,12.30
2023-03-19T19:06:04.742Z,12.30
2023-03-19T19:08:32.924Z,12.30
2023-03-19T19:11:04.224Z,12.30
2023-03-19T19:13:46.214Z,12.20
2023-03-19T19:16:21.762Z,12.20
2023-03-19T19:18:49.945Z,12.20
2023-03-19T19:21:20.327Z,12.10
2023-03-19T19:23:50.821Z,12.10
2023-03-19T19:26:25.630Z,12.00
2023-03-19T19:28:56.101Z,12.00
2023-03-19T19:31:29.848Z,11.90
2023-03-19T19:34:00.905Z,11.90
2023-03-19T19:36:32.069Z,11.80
2023-03-19T19:39:03.333Z,11.80
2023-03-19T19:41:34.330Z,11.80
2023-03-19T19:44:03.457Z,11.70
2023-03-19T19:46:33.733Z,11.70
2023-03-19T19:49:02.061Z,11.70
2023-03-19T19:51:30.950Z,11.60
2023-03-19T19:54:01.487Z,11.60
2023-03-19T19:56:30.720Z,11.60
2023-03-19T19:59:01.279Z,11.60
2023-03-19T20:01:32.971Z,11.60
2023-03-19T20:04:01.339Z,11.50
2023-03-19T20:06:29.531Z,11.50
2023-03-19T20:08:57.708Z,11.50
2023-03-19T20:11:26.931Z,11.50
2023-03-19T20:13:56.841Z,11.40
2023-03-19T20:16:26.733Z,11.40
2023-03-19T20:18:58.957Z,11.40
2023-03-19T20:21:29.079Z,11.30
2023-03-19T20:23:58.867Z,11.30
2023-03-19T20:26:27.125Z,11.20
2023-03-19T20:28:56.023Z,11.20
2023-03-19T20:31:27.495Z,11.20
2023-03-19T20:33:55.893Z,11.20
2023-03-19T20:36:27.902Z,11.10
2023-03-19T20:38:56.141Z,11.10
2023-03-19T20:41:27.048Z,11.00
2023-03-19T20:43:56.096Z,11.00
2023-03-19T20:46:26.904Z,11.00
2023-03-19T20:48:55.171Z,10.90
2023-03-19T20:51:26.103Z,10.90
2023-03-19T20:53:55.832Z,10.90
2023-03-19T20:56:27.060Z,10.80
2023-03-19T20:58:55.398Z,10.80
2023-03-19T21:01:24.929Z,10.80
2023-03-19T21:03:55.685Z,10.70
2023-03-19T21:06:25.323Z,10.70
2023-03-19T21:08:59.702Z,10.60
2023-03-19T21:11:38.298Z,10.60
2023-03-19T21:14:08.435Z,10.60
2023-03-19T21:16:39.014Z,10.50
2023-03-19T21:19:09.873Z,10.50
2023-03-19T21:21:38.858Z,10.40
2023-03-19T21:24:13.457Z,10.40
2023-03-19T21:26:42.689Z,10.30
2023-03-19T21:29:16.024Z,10.30
2023-03-19T21:31:44.521Z,10.30
2023-03-19T21:34:15.971Z,10.20
2023-03-19T21:36:46.683Z,10.20
2023-03-19T21:39:17.118Z,10.20
2023-03-19T21:41:47.252Z,10.10
2023-03-19T21:44:22.673Z,10.10
2023-03-19T21:46:51.029Z,10.10
2023-03-19T21:49:19.171Z,10.10
2023-03-19T21:51:47.799Z,10.00
2023-03-19T21:54:17.714Z,10.00
2023-03-19T21:56:46.876Z,10.00
2023-03-19T21:59:17.169Z,9.90
2023-03-19T22:01:47.669Z,9.90
2023-03-19T22:04:19.207Z,9.80
2023-03-19T22:06:49.119Z,9.80
2023-03-19T22:09:21.832Z,9.80
2023-03-19T22:11:50.045Z,9.70
2023-03-19T22:14:20.258Z,9.60
2023-03-19T22:16:52.751Z,9.60
2023-03-19T22:19:21.783Z,9.60
2023-03-19T22:21:52.532Z,9.50
2023-03-19T22:24:22.040Z,9.50
2023-03-19T22:26:57.380Z,9.40
2023-03-19T22:29:26.602Z,9.40
2023-03-19T22:31:55.786Z,9.40
2023-03-19T22:34:27.590Z,9.40
2023-03-19T22:36:55.900Z,9.30
2023-03-19T22:39:27.659Z,9.30
2023-03-19T22:41:55.903Z,9.30
2023-03-19T22:44:27.418Z,9.30
2023-03-19T22:46:56.460Z,9.20
2023-03-19T22:49:25.393Z,9.20
2023-03-19T22:51:53.504Z,9.20
2023-03-19T22:54:21.663Z,9.10
2023-03-19T22:56:53.417Z,9.10
2023-03-19T22:59:24.094Z,9.00
2023-03-19T23:01:52.309Z,9.00
2023-03-19T23:04:24.880Z,8.90
2023-03-19T23:06:56.639Z,8.90
2023-03-19T23:09:26.545Z,8.90
2023-03-19T23:11:57.773Z,8.80
2023-03-19T23:14:30.257Z,8.80
2023-03-19T23:17:03.082Z,8.80
2023-03-19T23:19:35.896Z,8.80
2023-03-19T23:22:09.660Z,8.70
2023-03-19T23:24:37.811Z,8.70
2023-03-19T23:27:23.211Z,8.70
2023-03-19T23:29:51.620Z,8.60
2023-03-19T23:32:19.948Z,8.50
2023-03-19T23:34:59.208Z,8.50
2023-03-19T23:37:28.768Z,8.40
2023-03-19T23:39:57.622Z,8.40
2023-03-19T23:42:30.151Z,8.40
2023-03-19T23:45:03.575Z,8.30
2023-03-19T23:47:35.027Z,8.20
2023-03-19T23:50:11.302Z,8.20
2023-03-19T23:52:41.705Z,8.20
2023-03-19T23:55:10.552Z,8.10
2023-03-19T23:57:40.495Z,8.10
